Time;durP1;ratioP1;P1;durP2;ratioP2;P2;SDS_P1;SDS_P2;PMS_P1;PMS_P2;Temp;Humidity;BMP_temperature;BMP_pressure;BME280_temperature;BME280_humidity;BME280_pressure;Samples;Min_cycle;Max_cycle;Signal;HPM_P1;HPM_P2
2022/06/30 00:01:36;;;;;;;3.60;2.80;;;18.90;64.20;;;;;;5049896;28;20547;-58
2022/06/30 00:04:04;;;;;;;3.00;2.33;;;18.90;64.70;;;;;;5052327;28;20502;-58
2022/06/30 00:06:31;;;;;;;4.40;2.43;;;18.80;64.90;;;;;;5052792;28;20825;-58
2022/06/30 00:08:58;;;;;;;2.87;2.40;;;18.80;65.20;;;;;;5053294;28;20865;-58
2022/06/30 00:11:27;;;;;;;3.33;2.90;;;18.80;65.50;;;;;;5046003;28;20547;-58
2022/06/30 00:13:54;;;;;;;3.33;2.80;;;18.80;65.90;;;;;;5036811;28;20460;-58
2022/06/30 00:16:25;;;;;;;3.70;2.77;;;18.70;66.10;;;;;;5052301;28;20983;-58
2022/06/30 00:18:53;;;;;;;3.47;3.17;;;18.70;66.40;;;;;;5053031;28;20460;-57
2022/06/30 00:21:20;;;;;;;3.83;2.53;;;18.70;66.90;;;;;;5052936;28;20526;-58
2022/06/30 00:23:47;;;;;;;3.63;2.90;;;18.70;67.20;;;;;;5051299;28;21159;-57
2022/06/30 00:26:15;;;;;;;3.30;3.00;;;18.70;67.40;;;;;;5037041;28;20520;-56
2022/06/30 00:28:43;;;;;;;4.53;2.80;;;18.60;67.80;;;;;;5049203;28;20460;-57
2022/06/30 00:31:11;;;;;;;5.83;2.47;;;18.60;68.20;;;;;;5052660;28;20498;-58
2022/06/30 00:33:38;;;;;;;2.37;2.17;;;18.60;68.60;;;;;;5046352;28;20546;-57
2022/06/30 00:36:05;;;;;;;4.43;3.13;;;18.50;68.80;;;;;;5041811;28;20979;-59
2022/06/30 00:38:33;;;;;;;5.60;3.07;;;18.50;69.20;;;;;;5051914;28;20497;-58
2022/06/30 00:41:00;;;;;;;3.17;2.70;;;18.50;69.50;;;;;;5044488;28;20952;-58
2022/06/30 00:43:27;;;;;;;3.70;2.80;;;18.50;69.90;;;;;;5045117;28;20444;-58
2022/06/30 00:45:56;;;;;;;3.57;2.70;;;18.40;70.20;;;;;;5033580;28;20469;-58
2022/06/30 00:48:28;;;;;;;4.17;2.70;;;18.40;70.60;;;;;;5052306;28;20983;-58
2022/06/30 00:50:55;;;;;;;5.00;2.80;;;18.30;71.00;;;;;;5053921;28;20498;-58
2022/06/30 00:53:24;;;;;;;4.17;2.70;;;18.30;71.50;;;;;;5035046;28;20547;-56
2022/06/30 00:55:55;;;;;;;5.90;2.93;;;18.30;71.90;;;;;;5050272;28;20476;-59
2022/06/30 00:58:23;;;;;;;3.53;2.80;;;18.20;72.30;;;;;;5050188;28;20471;-58
2022/06/30 01:00:50;;;;;;;5.20;3.03;;;18.20;72.80;;;;;;5033430;28;20467;-58
2022/06/30 01:03:20;;;;;;;3.13;2.80;;;18.20;73.20;;;;;;5036045;28;20465;-59
2022/06/30 01:05:48;;;;;;;5.77;3.30;;;18.20;73.60;;;;;;5033348;28;20488;-59
2022/06/30 01:08:17;;;;;;;4.37;3.97;;;18.10;74.00;;;;;;5035301;28;20472;-59
2022/06/30 01:13:30;;;;;;;4.90;2.87;;;18.10;75.00;;;;;;5034925;28;20401;-57
2022/06/30 01:15:57;;;;;;;6.73;3.30;;;18.00;75.30;;;;;;5052861;28;20466;-57
2022/06/30 01:18:25;;;;;;;4.77;2.93;;;18.00;75.80;;;;;;5051132;28;20463;-57
2022/06/30 01:20:53;;;;;;;3.57;2.57;;;18.00;76.20;;;;;;5052008;28;20502;-57
2022/06/30 01:23:22;;;;;;;3.30;2.97;;;18.00;76.40;;;;;;5051675;28;20467;-57
2022/06/30 01:25:50;;;;;;;3.87;3.47;;;18.00;76.80;;;;;;5039639;28;20549;-57
2022/06/30 01:28:18;;;;;;;3.13;2.83;;;17.90;77.10;;;;;;5033162;28;20483;-57
2022/06/30 01:30:45;;;;;;;3.77;3.03;;;17.90;77.50;;;;;;5051051;28;20460;-58
2022/06/30 01:33:12;;;;;;;3.50;2.87;;;17.90;78.00;;;;;;5037146;28;20495;-58
2022/06/30 01:35:40;;;;;;;3.20;2.80;;;17.80;78.40;;;;;;5050782;28;20475;-59
2022/06/30 01:38:07;;;;;;;2.53;2.33;;;17.80;78.80;;;;;;5051062;28;21020;-58
2022/06/30 01:40:37;;;;;;;3.70;3.00;;;17.80;79.50;;;;;;5035499;28;20489;-58
2022/06/30 01:43:06;;;;;;;6.10;3.10;;;17.70;79.90;;;;;;5047384;28;20541;-59
2022/06/30 01:45:34;;;;;;;3.50;2.90;;;17.70;80.50;;;;;;5040811;28;20486;-58
2022/06/30 01:48:01;;;;;;;4.30;2.70;;;17.60;81.00;;;;;;5053066;28;20446;-57
2022/06/30 01:50:30;;;;;;;6.57;2.60;;;17.60;81.50;;;;;;5050483;28;20466;-57
2022/06/30 01:52:58;;;;;;;4.10;3.80;;;17.50;82.00;;;;;;5052994;28;20443;-59
2022/06/30 01:55:27;;;;;;;6.00;2.90;;;17.50;82.40;;;;;;5044274;28;20542;-59
2022/06/30 01:57:58;;;;;;;3.47;3.17;;;17.50;82.90;;;;;;5031246;28;20516;-58
2022/06/30 02:00:26;;;;;;;3.47;3.17;;;17.40;83.30;;;;;;5037714;28;20466;-58
2022/06/30 02:02:54;;;;;;;5.60;3.07;;;17.30;84.40;;;;;;5033671;28;20475;-59
2022/06/30 02:05:22;;;;;;;4.43;2.90;;;17.40;84.20;;;;;;5045698;28;20898;-59
2022/06/30 02:07:50;;;;;;;4.37;3.07;;;17.30;84.60;;;;;;5056502;28;21048;-59
2022/06/30 02:10:20;;;;;;;4.33;3.33;;;17.30;85.00;;;;;;5047873;28;20457;-58
2022/06/30 02:12:47;;;;;;;3.93;2.90;;;17.30;86.20;;;;;;5037233;28;20820;-59
2022/06/30 02:15:20;;;;;;;3.70;2.87;;;17.20;85.80;;;;;;5053408;28;21017;-58
2022/06/30 02:17:49;;;;;;;3.83;3.53;;;17.20;86.10;;;;;;5056874;28;20503;-58
2022/06/30 02:20:21;;;;;;;4.17;3.77;;;17.20;86.30;;;;;;5055427;28;20470;-58
2022/06/30 02:22:49;;;;;;;3.60;3.20;;;17.20;86.40;;;;;;5052323;28;20521;-58
2022/06/30 02:25:17;;;;;;;4.33;3.93;;;17.20;86.60;;;;;;5046385;28;20981;-58
2022/06/30 02:27:45;;;;;;;5.33;3.57;;;17.20;86.80;;;;;;5043782;28;20469;-58
2022/06/30 02:30:13;;;;;;;3.93;3.50;;;17.20;86.90;;;;;;5054864;28;20516;-58
2022/06/30 02:32:42;;;;;;;4.30;3.90;;;17.10;87.00;;;;;;5049684;28;20467;-58
2022/06/30 02:35:10;;;;;;;3.30;3.03;;;17.10;87.20;;;;;;5055614;28;20826;-58
2022/06/30 02:37:37;;;;;;;4.87;3.70;;;17.10;87.40;;;;;;5055851;28;20453;-58
2022/06/30 02:40:05;;;;;;;4.20;3.80;;;17.10;87.60;;;;;;5037545;28;20474;-58
2022/06/30 02:42:33;;;;;;;3.97;3.47;;;17.00;87.60;;;;;;5036226;28;20467;-58
2022/06/30 02:45:00;;;;;;;3.60;3.30;;;17.10;87.80;;;;;;5054395;28;20490;-58
2022/06/30 02:47:32;;;;;;;6.10;3.80;;;17.00;87.90;;;;;;5055604;28;20451;-58
2022/06/30 02:50:03;;;;;;;4.57;3.80;;;17.10;88.00;;;;;;5053151;28;20571;-58
2022/06/30 02:52:31;;;;;;;3.93;3.50;;;17.00;88.00;;;;;;5053664;28;20512;-58
2022/06/30 02:54:59;;;;;;;4.83;3.47;;;17.00;88.10;;;;;;5021045;28;20913;-58
2022/06/30 02:57:26;;;;;;;7.90;3.97;;;17.00;88.00;;;;;;5047014;28;20494;-58
2022/06/30 02:59:53;;;;;;;5.80;3.47;;;17.10;88.20;;;;;;5049201;28;20476;-58
2022/06/30 03:02:21;;;;;;;4.73;3.40;;;17.00;88.20;;;;;;5039769;28;20461;-58
2022/06/30 03:04:48;;;;;;;3.63;3.33;;;17.00;88.20;;;;;;5046909;28;20482;-58
2022/06/30 03:07:17;;;;;;;4.87;3.60;;;17.00;88.30;;;;;;5054264;28;20466;-58
2022/06/30 03:09:44;;;;;;;4.60;3.97;;;17.00;88.20;;;;;;5053828;28;21067;-58
2022/06/30 03:12:12;;;;;;;3.90;3.20;;;17.00;88.30;;;;;;5048927;28;20822;-58
2022/06/30 03:14:39;;;;;;;5.80;3.53;;;17.10;88.50;;;;;;5046058;28;20508;-58
2022/06/30 03:17:07;;;;;;;4.47;3.73;;;17.00;88.40;;;;;;5054886;28;20447;-58
2022/06/30 03:19:34;;;;;;;4.00;3.40;;;17.10;88.60;;;;;;5052880;28;20824;-58
2022/06/30 03:22:01;;;;;;;4.07;3.30;;;17.10;88.70;;;;;;5053902;28;20460;-58
2022/06/30 03:24:30;;;;;;;3.87;3.57;;;17.10;88.70;;;;;;5051093;28;20486;-58
2022/06/30 03:26:57;;;;;;;4.90;4.23;;;17.10;88.70;;;;;;5036854;28;20913;-58
2022/06/30 03:29:25;;;;;;;3.50;3.20;;;17.10;88.80;;;;;;5043584;28;20805;-58
2022/06/30 03:31:52;;;;;;;6.23;3.53;;;17.10;89.00;;;;;;5050757;28;20462;-58
2022/06/30 03:34:19;;;;;;;5.33;3.87;;;17.10;89.00;;;;;;5046035;28;20488;-58
2022/06/30 03:36:47;;;;;;;4.60;3.40;;;17.10;89.00;;;;;;5043437;28;20480;-58
2022/06/30 03:39:14;;;;;;;5.47;3.67;;;17.10;89.10;;;;;;5053962;28;20548;-58
2022/06/30 03:41:43;;;;;;;5.53;3.60;;;17.10;89.10;;;;;;5054361;28;20450;-58
2022/06/30 03:44:10;;;;;;;3.60;3.30;;;17.10;89.10;;;;;;5042627;28;20468;-58
2022/06/30 03:46:37;;;;;;;4.70;3.87;;;17.10;89.10;;;;;;5038716;28;20493;-58
2022/06/30 03:49:05;;;;;;;3.63;3.33;;;17.20;89.10;;;;;;5053250;28;20524;-58
2022/06/30 03:51:32;;;;;;;5.47;3.70;;;17.20;89.10;;;;;;5053058;28;20548;-58
2022/06/30 03:53:59;;;;;;;4.57;3.50;;;17.20;88.90;;;;;;5053117;28;20462;-58
2022/06/30 03:56:27;;;;;;;4.53;4.00;;;17.30;89.00;;;;;;5053906;28;20492;-58
2022/06/30 03:58:55;;;;;;;6.90;4.10;;;17.30;88.70;;;;;;5043618;28;21014;-58
2022/06/30 04:01:23;;;;;;;4.20;3.60;;;17.40;88.50;;;;;;5040295;28;20554;-60
2022/06/30 04:03:50;;;;;;;7.10;4.20;;;17.50;88.20;;;;;;5043982;28;20494;-55
2022/06/30 04:06:17;;;;;;;4.03;3.30;;;17.50;87.70;;;;;;5046302;28;20569;-57
2022/06/30 04:09:55;;;;;;;4.17;3.87;;;17.70;86.70;;;;;;5110270;27;20570;-58
2022/06/30 04:12:23;;;;;;;7.40;3.87;;;17.90;86.30;;;;;;5111321;28;20481;-58
2022/06/30 04:14:53;;;;;;;5.07;3.80;;;18.00;85.70;;;;;;5097086;28;20523;-58
2022/06/30 04:17:20;;;;;;;8.27;4.07;;;18.30;85.00;;;;;;5090140;28;20537;-57
2022/06/30 04:19:47;;;;;;;4.20;3.43;;;18.60;83.70;;;;;;5109528;28;21010;-57
2022/06/30 04:22:15;;;;;;;3.60;3.23;;;18.90;81.90;;;;;;5110688;28;20438;-57
2022/06/30 04:24:42;;;;;;;4.67;3.80;;;19.30;79.80;;;;;;5109110;28;20847;-57
2022/06/30 04:27:12;;;;;;;4.03;3.60;;;19.60;77.30;;;;;;5110606;28;20515;-57
2022/06/30 04:29:39;;;;;;;3.83;3.47;;;20.00;75.50;;;;;;5084407;22;20589;-60
2022/06/30 04:34:52;;;;;;;7.10;4.60;;;20.60;71.70;;;;;;5044822;28;20453;-61
2022/06/30 04:37:19;;;;;;;4.57;4.03;;;20.80;69.80;;;;;;5049875;28;20876;-59
2022/06/30 04:39:46;;;;;;;4.80;3.47;;;21.10;68.30;;;;;;5049268;28;21003;-61
2022/06/30 04:42:14;;;;;;;5.23;3.40;;;21.30;66.70;;;;;;5050057;28;20444;-61
2022/06/30 04:44:42;;;;;;;3.50;3.20;;;21.50;65.50;;;;;;5047266;28;20966;-60
2022/06/30 04:47:10;;;;;;;4.27;3.30;;;21.80;64.40;;;;;;5048491;28;20462;-61
2022/06/30 04:49:37;;;;;;;4.90;3.50;;;22.00;63.10;;;;;;5048720;28;20563;-60
2022/06/30 04:52:05;;;;;;;8.80;4.73;;;22.20;62.10;;;;;;5048586;28;20464;-61
2022/06/30 04:54:33;;;;;;;3.77;3.43;;;22.30;61.20;;;;;;5048886;28;20468;-61
2022/06/30 04:57:00;;;;;;;6.30;3.60;;;22.50;60.60;;;;;;5048857;28;20495;-61
2022/06/30 04:59:29;;;;;;;4.00;3.60;;;22.60;59.50;;;;;;5039428;28;20529;-61
2022/06/30 05:01:56;;;;;;;4.53;3.57;;;22.60;59.40;;;;;;5039540;28;20523;-61
2022/06/30 05:04:23;;;;;;;5.13;3.80;;;22.70;59.30;;;;;;5040700;28;20468;-61
2022/06/30 05:06:50;;;;;;;5.90;4.43;;;22.80;58.90;;;;;;5049430;28;20822;-61
2022/06/30 05:09:18;;;;;;;5.80;4.10;;;22.70;58.60;;;;;;5048012;28;20495;-61
2022/06/30 05:11:45;;;;;;;5.47;4.33;;;22.60;58.80;;;;;;5049302;28;20846;-61
2022/06/30 05:14:12;;;;;;;5.20;4.00;;;22.50;59.10;;;;;;5040813;28;20460;-61
2022/06/30 05:16:41;;;;;;;7.37;3.80;;;22.40;59.10;;;;;;5037377;28;20526;-62
2022/06/30 05:19:08;;;;;;;6.30;4.07;;;22.30;59.20;;;;;;5046736;28;20488;-60
2022/06/30 05:21:36;;;;;;;5.63;4.20;;;22.10;59.50;;;;;;5033926;28;20465;-61
2022/06/30 05:26:47;;;;;;;8.10;4.23;;;21.70;60.60;;;;;;4994269;28;20536;-60
2022/06/30 05:29:14;;;;;;;4.77;3.80;;;21.70;61.10;;;;;;5015609;28;20540;-63
2022/06/30 05:31:43;;;;;;;5.20;3.87;;;21.70;61.10;;;;;;5021562;28;20511;-61
2022/06/30 05:34:11;;;;;;;4.60;3.90;;;21.70;61.10;;;;;;5022877;28;20469;-61
2022/06/30 05:36:38;;;;;;;8.07;4.53;;;21.90;61.40;;;;;;5014512;28;20561;-61
2022/06/30 05:39:05;;;;;;;10.50;4.67;;;22.10;61.00;;;;;;5029436;28;20571;-60
2022/06/30 05:41:32;;;;;;;4.73;4.10;;;22.50;60.50;;;;;;5028395;28;20465;-61
2022/06/30 05:44:00;;;;;;;5.60;4.60;;;22.90;59.80;;;;;;5026117;28;20466;-62
2022/06/30 05:46:27;;;;;;;5.20;4.10;;;23.20;58.90;;;;;;5033120;28;20488;-62
2022/06/30 05:48:56;;;;;;;5.43;3.90;;;23.40;58.40;;;;;;5022080;28;21057;-61
2022/06/30 05:51:23;;;;;;;7.93;4.30;;;23.50;57.90;;;;;;5032276;28;20467;-63
2022/06/30 05:53:51;;;;;;;5.50;3.90;;;23.60;57.80;;;;;;5027024;28;20497;-65
2022/06/30 05:56:18;;;;;;;6.40;4.70;;;23.80;57.60;;;;;;5026975;28;20567;-62
2022/06/30 05:58:46;;;;;;;4.77;3.83;;;23.90;57.30;;;;;;5012391;28;20563;-64
2022/06/30 06:01:13;;;;;;;9.20;4.77;;;23.90;57.10;;;;;;5001091;28;20465;-63
2022/06/30 06:03:40;;;;;;;6.13;5.20;;;24.00;57.10;;;;;;5034316;28;20484;-61
2022/06/30 06:06:09;;;;;;;6.10;4.80;;;24.20;56.80;;;;;;5033103;28;20539;-63
2022/06/30 06:08:36;;;;;;;7.60;5.10;;;24.30;56.60;;;;;;5033717;28;20488;-63
2022/06/30 06:11:04;;;;;;;7.80;4.77;;;24.40;56.50;;;;;;5015914;28;20461;-63
2022/06/30 06:13:31;;;;;;;6.40;4.70;;;24.50;56.40;;;;;;5032349;28;20957;-63
2022/06/30 06:15:58;;;;;;;10.83;5.10;;;24.50;56.40;;;;;;5033348;28;20518;-63
2022/06/30 06:18:26;;;;;;;5.87;5.27;;;24.50;56.50;;;;;;5031806;28;20568;-65
2022/06/30 06:20:53;;;;;;;6.13;5.53;;;24.60;56.50;;;;;;5030235;28;20457;-63
2022/06/30 06:23:22;;;;;;;7.27;5.83;;;24.60;56.40;;;;;;5034717;28;20465;-63
2022/06/30 06:25:51;;;;;;;6.80;6.10;;;24.60;56.50;;;;;;5037276;28;20541;-64
2022/06/30 06:31:03;;;;;;;6.60;6.00;;;24.60;56.60;;;;;;5034223;28;20932;-62
2022/06/30 06:33:30;;;;;;;8.80;6.30;;;24.50;56.80;;;;;;4998322;28;20466;-62
2022/06/30 06:35:58;;;;;;;6.00;5.40;;;24.50;57.20;;;;;;5021518;28;20507;-63
2022/06/30 06:38:27;;;;;;;6.63;6.03;;;24.40;57.30;;;;;;5029272;28;21047;-63
2022/06/30 06:40:55;;;;;;;7.40;6.27;;;24.40;57.40;;;;;;5014199;28;20890;-62
2022/06/30 06:43:22;;;;;;;6.40;5.90;;;24.40;57.40;;;;;;5024594;28;20531;-64
2022/06/30 06:45:49;;;;;;;6.10;5.30;;;24.50;57.50;;;;;;5032754;28;20510;-62
2022/06/30 06:48:16;;;;;;;7.33;6.13;;;24.60;57.30;;;;;;5021018;28;20506;-61
2022/06/30 06:50:44;;;;;;;6.77;5.40;;;24.70;57.20;;;;;;5032713;28;20553;-62
2022/06/30 06:53:11;;;;;;;7.90;5.90;;;24.80;57.10;;;;;;5030839;28;20445;-63
2022/06/30 06:55:40;;;;;;;6.07;5.47;;;24.80;57.00;;;;;;5022231;28;20458;-66
2022/06/30 06:58:08;;;;;;;8.30;5.67;;;24.80;57.20;;;;;;5029109;28;20511;-62
2022/06/30 07:00:35;;;;;;;6.10;5.10;;;24.70;57.30;;;;;;5033090;28;20793;-63
2022/06/30 07:03:03;;;;;;;6.10;5.43;;;24.70;57.50;;;;;;5033731;28;20449;-62
2022/06/30 07:05:30;;;;;;;5.83;5.33;;;24.70;57.70;;;;;;5033693;28;20503;-63
2022/06/30 07:07:58;;;;;;;5.40;4.90;;;24.80;57.80;;;;;;5033288;28;20543;-62
2022/06/30 07:10:26;;;;;;;5.97;4.83;;;24.90;57.80;;;;;;5033114;28;20999;-63
2022/06/30 07:12:55;;;;;;;7.20;5.60;;;24.90;57.80;;;;;;5033430;28;20596;-61
2022/06/30 07:15:23;;;;;;;8.93;5.30;;;25.00;57.70;;;;;;5033667;28;20514;-62
2022/06/30 07:17:50;;;;;;;8.13;6.37;;;25.00;57.60;;;;;;5033419;28;20511;-62
2022/06/30 07:20:17;;;;;;;8.60;6.20;;;25.10;57.80;;;;;;5033775;28;20465;-62
2022/06/30 07:22:45;;;;;;;8.63;5.93;;;25.10;57.90;;;;;;5033921;28;20472;-62
2022/06/30 07:25:12;;;;;;;7.27;5.93;;;25.10;57.90;;;;;;5034630;28;20444;-63
2022/06/30 07:27:39;;;;;;;8.13;5.90;;;25.10;58.00;;;;;;5035814;28;20484;-63
2022/06/30 07:30:11;;;;;;;6.70;5.67;;;25.10;58.10;;;;;;5041092;28;21025;-63
2022/06/30 07:32:38;;;;;;;6.90;6.20;;;25.10;58.10;;;;;;5041179;28;20426;-63
2022/06/30 07:35:06;;;;;;;6.73;6.13;;;25.10;58.20;;;;;;5040558;28;20525;-62
2022/06/30 07:37:38;;;;;;;8.10;7.07;;;25.10;58.40;;;;;;5041009;28;20550;-61
2022/06/30 07:40:06;;;;;;;7.00;6.40;;;25.10;58.60;;;;;;5036776;28;20471;-63
2022/06/30 07:42:34;;;;;;;9.63;7.30;;;25.20;58.70;;;;;;5035984;28;20475;-62
2022/06/30 07:45:01;;;;;;;8.33;7.53;;;25.30;58.60;;;;;;5033829;28;20824;-62
2022/06/30 07:47:30;;;;;;;7.83;7.03;;;25.30;58.50;;;;;;5033492;28;20944;-63
2022/06/30 07:49:57;;;;;;;8.50;7.70;;;25.40;58.50;;;;;;5033624;28;20539;-63
2022/06/30 07:52:24;;;;;;;7.70;7.00;;;25.50;58.60;;;;;;5033554;28;20531;-62
2022/06/30 07:54:52;;;;;;;8.20;7.40;;;25.50;58.60;;;;;;5033893;28;20515;-63
2022/06/30 07:57:19;;;;;;;8.90;8.00;;;25.60;58.60;;;;;;5033338;28;20455;-62
2022/06/30 07:59:47;;;;;;;7.60;7.00;;;25.70;58.50;;;;;;5033014;28;20968;-63
2022/06/30 08:02:14;;;;;;;8.60;7.37;;;25.80;58.40;;;;;;5032926;28;20830;-63
2022/06/30 08:04:43;;;;;;;7.93;7.17;;;25.90;58.30;;;;;;5033074;28;20445;-63
2022/06/30 08:07:10;;;;;;;8.20;7.50;;;25.90;58.10;;;;;;5033035;28;20452;-63
2022/06/30 08:09:38;;;;;;;8.90;8.10;;;26.00;58.10;;;;;;5033111;28;20480;-62
2022/06/30 08:12:06;;;;;;;8.53;7.70;;;26.10;57.90;;;;;;5033133;28;20447;-63
2022/06/30 08:14:34;;;;;;;7.90;7.23;;;26.20;57.80;;;;;;5033987;28;20821;-63
2022/06/30 08:17:02;;;;;;;8.60;7.80;;;26.30;57.60;;;;;;5033107;28;20517;-62
2022/06/30 08:19:29;;;;;;;9.23;8.43;;;26.30;57.60;;;;;;5032295;28;20461;-63
2022/06/30 08:21:58;;;;;;;8.90;8.10;;;26.20;57.90;;;;;;5032286;28;20452;-63
2022/06/30 08:24:25;;;;;;;8.70;7.80;;;26.20;58.00;;;;;;5032825;28;20540;-63
2022/06/30 08:26:53;;;;;;;8.23;7.63;;;26.30;57.90;;;;;;5032358;28;20476;-63
2022/06/30 08:29:20;;;;;;;9.03;8.23;;;26.40;57.60;;;;;;5031746;28;20579;-62
2022/06/30 08:31:48;;;;;;;9.93;8.20;;;26.60;57.60;;;;;;5032079;28;20502;-63
2022/06/30 08:34:15;;;;;;;10.07;9.07;;;26.70;57.50;;;;;;5032470;28;20472;-63
2022/06/30 08:36:43;;;;;;;9.23;8.53;;;26.70;57.30;;;;;;5032062;28;20476;-63
2022/06/30 08:42:05;;;;;;;12.27;9.80;;;26.70;57.50;;;;;;5031418;28;20413;-62
2022/06/30 08:44:34;;;;;;;11.90;10.07;;;26.80;57.50;;;;;;5032560;28;20447;-64
2022/06/30 08:47:03;;;;;;;11.50;9.47;;;27.00;57.30;;;;;;5031856;28;20795;-64
2022/06/30 08:49:31;;;;;;;10.30;9.40;;;27.00;57.00;;;;;;5032377;28;20520;-64
2022/06/30 08:52:00;;;;;;;10.67;9.57;;;27.10;57.00;;;;;;5032184;28;20519;-63
2022/06/30 08:54:31;;;;;;;9.97;9.00;;;27.20;56.80;;;;;;5032323;28;20491;-64
2022/06/30 08:57:01;;;;;;;10.93;9.80;;;27.40;56.50;;;;;;5035616;28;20481;-63
2022/06/30 08:59:29;;;;;;;10.33;9.33;;;27.60;56.00;;;;;;5035857;28;20468;-63
2022/06/30 09:01:56;;;;;;;9.60;8.80;;;27.70;55.50;;;;;;5035674;28;20510;-63
2022/06/30 09:04:24;;;;;;;9.63;8.77;;;27.80;55.30;;;;;;5035546;28;20448;-63
2022/06/30 09:06:51;;;;;;;9.67;8.80;;;27.90;55.10;;;;;;5035691;28;20972;-64
2022/06/30 09:09:19;;;;;;;10.30;9.20;;;27.80;55.00;;;;;;5035140;28;20472;-63
2022/06/30 09:11:52;;;;;;;9.50;8.57;;;27.70;55.20;;;;;;5036200;28;20498;-64
2022/06/30 09:14:33;;;;;;;9.20;8.40;;;27.70;55.30;;;;;;5035713;28;20421;-63
2022/06/30 09:17:01;;;;;;;9.40;8.50;;;27.60;55.30;;;;;;5035157;28;20559;-63
2022/06/30 09:19:29;;;;;;;9.33;8.53;;;27.60;56.00;;;;;;5034811;28;20523;-63
2022/06/30 09:22:08;;;;;;;9.57;8.70;;;27.70;55.40;;;;;;5034641;28;20992;-63
2022/06/30 09:24:35;;;;;;;10.43;9.43;;;27.60;55.30;;;;;;5034968;28;20511;-62
2022/06/30 09:27:22;;;;;;;9.40;8.27;;;27.50;55.40;;;;;;5035617;28;20448;-63
2022/06/30 09:29:51;;;;;;;9.70;8.73;;;27.50;55.80;;;;;;5035266;28;20485;-63
2022/06/30 09:32:19;;;;;;;10.23;8.60;;;27.60;55.50;;;;;;5035682;28;20510;-63
2022/06/30 09:34:48;;;;;;;9.93;9.03;;;27.70;55.50;;;;;;5039539;28;20445;-63
2022/06/30 09:37:17;;;;;;;9.73;8.73;;;27.80;55.30;;;;;;5035317;28;20449;-63
2022/06/30 09:39:45;;;;;;;8.47;7.67;;;27.90;55.10;;;;;;5034805;28;21060;-63
2022/06/30 09:42:13;;;;;;;8.90;8.10;;;28.10;54.80;;;;;;5034983;28;20539;-63
2022/06/30 09:44:48;;;;;;;9.17;8.33;;;28.30;54.50;;;;;;5035014;28;20475;-63
2022/06/30 09:47:15;;;;;;;8.10;7.40;;;28.50;54.00;;;;;;5035168;28;20417;-63
2022/06/30 09:49:44;;;;;;;9.07;8.23;;;28.80;53.80;;;;;;5034742;28;20524;-64
2022/06/30 09:52:23;;;;;;;8.43;7.73;;;29.00;52.90;;;;;;5034694;28;20451;-63
2022/06/30 09:54:54;;;;;;;9.77;8.70;;;29.00;52.70;;;;;;5034682;28;20479;-64
2022/06/30 09:57:23;;;;;;;8.90;7.93;;;28.80;52.90;;;;;;5034747;28;20464;-64
2022/06/30 10:00:02;;;;;;;8.70;8.00;;;28.70;53.10;;;;;;5034480;28;20961;-63
2022/06/30 10:02:34;;;;;;;8.20;7.50;;;28.80;53.00;;;;;;5034649;28;20428;-63
2022/06/30 10:05:03;;;;;;;9.23;8.20;;;28.80;52.80;;;;;;5034933;28;20476;-63
2022/06/30 10:07:34;;;;;;;9.17;8.27;;;29.00;52.60;;;;;;5034266;28;20840;-63
2022/06/30 10:10:02;;;;;;;8.90;8.10;;;29.10;52.40;;;;;;5034044;28;20495;-65
2022/06/30 10:12:30;;;;;;;9.63;8.50;;;29.10;52.20;;;;;;5034593;28;20947;-63
2022/06/30 10:14:59;;;;;;;8.10;7.30;;;29.10;52.10;;;;;;5034737;28;20445;-63
2022/06/30 10:17:28;;;;;;;8.03;7.33;;;29.10;52.20;;;;;;5034565;28;20449;-63
2022/06/30 10:19:56;;;;;;;9.33;8.30;;;29.20;52.20;;;;;;5034439;28;20567;-63
2022/06/30 10:22:25;;;;;;;9.00;8.23;;;29.30;52.10;;;;;;5034727;28;20539;-63
2022/06/30 10:24:54;;;;;;;8.70;7.90;;;29.30;52.00;;;;;;5033982;28;21059;-63
2022/06/30 10:27:24;;;;;;;8.73;8.03;;;29.50;51.90;;;;;;5033810;28;20587;-63
2022/06/30 10:29:55;;;;;;;9.50;8.70;;;29.60;51.50;;;;;;5057540;22;20500;-59
2022/06/30 10:32:42;;;;;;;13.60;8.53;;;30.00;51.00;;;;;;5034213;28;20421;-58
2022/06/30 10:35:19;;;;;;;9.03;8.37;;;30.30;50.30;;;;;;5034197;28;20486;-58
2022/06/30 10:37:52;;;;;;;10.43;9.60;;;30.20;50.20;;;;;;5034354;28;20429;-60
2022/06/30 10:40:36;;;;;;;12.03;10.30;;;30.00;50.50;;;;;;5033959;28;20560;-59
2022/06/30 10:43:04;;;;;;;9.40;8.60;;;29.90;50.70;;;;;;5034116;28;20422;-57
2022/06/30 10:45:53;;;;;;;8.80;8.03;;;30.10;50.40;;;;;;5033673;28;20440;-58
2022/06/30 10:48:22;;;;;;;8.30;7.53;;;30.40;50.00;;;;;;5034103;28;20512;-58
2022/06/30 10:50:52;;;;;;;7.57;7.00;;;30.50;49.30;;;;;;5033839;28;20960;-58
2022/06/30 10:53:38;;;;;;;8.83;8.03;;;30.50;49.20;;;;;;5033908;28;20476;-59
2022/06/30 10:56:06;;;;;;;10.63;7.33;;;30.70;48.90;;;;;;5033093;28;20464;-58
2022/06/30 10:58:33;;;;;;;8.87;8.07;;;30.80;48.60;;;;;;5034016;28;20445;-57
2022/06/30 11:01:02;;;;;;;8.47;7.63;;;30.70;48.50;;;;;;5033578;28;20445;-59
2022/06/30 11:04:02;;;;;;;8.53;7.73;;;30.60;48.60;;;;;;5033999;28;20530;-58
2022/06/30 11:06:58;;;;;;;9.20;8.40;;;30.50;49.00;;;;;;5034002;28;20589;-58
2022/06/30 11:10:07;;;;;;;9.00;8.30;;;30.40;49.40;;;;;;5034008;28;20969;-58
2022/06/30 11:13:07;;;;;;;9.23;8.43;;;30.40;49.60;;;;;;5026236;28;20453;-57
2022/06/30 11:16:05;;;;;;;9.87;9.07;;;30.50;49.30;;;;;;5033783;28;20829;-58
2022/06/30 11:18:35;;;;;;;8.90;8.17;;;30.40;49.10;;;;;;5033044;28;20479;-57
2022/06/30 11:21:04;;;;;;;10.37;9.47;;;30.40;49.10;;;;;;5033944;28;20425;-58
2022/06/30 11:23:40;;;;;;;8.80;7.83;;;30.40;49.00;;;;;;5032905;28;20973;-58
2022/06/30 11:28:54;;;;;;;9.37;8.47;;;30.70;48.00;;;;;;5032836;28;20499;-58
2022/06/30 11:31:31;;;;;;;8.50;7.80;;;30.80;47.70;;;;;;5033085;28;20469;-58
2022/06/30 11:34:00;;;;;;;9.40;8.43;;;30.90;47.60;;;;;;5032875;28;20527;-59
2022/06/30 11:36:29;;;;;;;9.47;8.30;;;31.10;48.00;;;;;;5032816;28;20449;-58
2022/06/30 11:38:58;;;;;;;9.23;8.33;;;31.00;47.40;;;;;;5032397;28;20484;-58
2022/06/30 11:44:14;;;;;;;8.57;7.77;;;31.00;47.50;;;;;;5032754;28;20460;-58
2022/06/30 11:46:52;;;;;;;7.43;6.83;;;31.10;47.50;;;;;;5032759;28;20445;-57
2022/06/30 11:49:19;;;;;;;9.60;8.03;;;31.40;47.20;;;;;;5032451;28;20465;-58
2022/06/30 11:51:48;;;;;;;9.17;8.37;;;31.60;46.60;;;;;;5032716;28;20913;-59
2022/06/30 11:54:17;;;;;;;7.40;6.80;;;31.70;46.10;;;;;;5032617;28;20448;-60
2022/06/30 11:56:46;;;;;;;8.87;8.17;;;31.70;45.60;;;;;;5032656;28;20552;-58
2022/06/30 11:59:13;;;;;;;8.87;7.90;;;31.80;45.20;;;;;;5033125;28;20465;-57
2022/06/30 12:01:41;;;;;;;7.63;7.03;;;32.00;44.50;;;;;;5032650;28;20992;-59
2022/06/30 12:04:16;;;;;;;8.57;7.33;;;32.40;44.00;;;;;;5032955;28;20483;-58
2022/06/30 12:06:44;;;;;;;8.50;7.70;;;32.80;43.00;;;;;;5032207;28;20959;-57
2022/06/30 12:09:12;;;;;;;8.30;7.60;;;33.30;42.30;;;;;;5032924;28;20559;-58
2022/06/30 12:11:40;;;;;;;8.00;7.40;;;33.70;41.70;;;;;;5033127;28;20480;-59
2022/06/30 12:14:08;;;;;;;9.50;8.60;;;34.20;41.00;;;;;;5032820;28;20522;-58
2022/06/30 12:16:36;;;;;;;8.80;8.10;;;34.60;40.20;;;;;;5032471;28;20507;-59
2022/06/30 12:19:03;;;;;;;9.03;8.23;;;34.80;39.50;;;;;;5032947;28;20972;-58
2022/06/30 12:21:32;;;;;;;9.40;8.60;;;34.80;39.30;;;;;;5032666;28;20499;-57
2022/06/30 12:24:00;;;;;;;10.17;7.83;;;34.40;39.90;;;;;;5032128;28;20445;-60
2022/06/30 12:26:29;;;;;;;12.13;7.40;;;34.20;40.20;;;;;;5032496;28;20441;-58
2022/06/30 12:28:56;;;;;;;7.77;7.17;;;34.20;40.10;;;;;;5032783;28;20546;-58
2022/06/30 12:31:24;;;;;;;8.37;7.67;;;34.30;40.00;;;;;;5035536;28;20475;-57
2022/06/30 12:33:53;;;;;;;7.90;7.10;;;34.30;39.80;;;;;;5036954;28;20467;-57
2022/06/30 12:36:20;;;;;;;7.57;6.97;;;34.50;39.70;;;;;;5036267;28;20548;-58
2022/06/30 12:38:48;;;;;;;8.67;7.20;;;34.60;39.00;;;;;;5037001;28;20472;-58
2022/06/30 12:41:15;;;;;;;7.50;6.90;;;34.60;38.80;;;;;;5036602;28;20455;-59
2022/06/30 12:43:49;;;;;;;7.67;6.53;;;34.60;38.70;;;;;;5036849;28;20836;-58
2022/06/30 12:46:16;;;;;;;7.80;7.10;;;34.20;38.60;;;;;;5036482;28;20469;-57
2022/06/30 12:48:47;;;;;;;8.27;7.67;;;33.80;39.40;;;;;;5036145;28;20913;-58
2022/06/30 12:51:16;;;;;;;9.17;8.00;;;33.40;39.80;;;;;;5032522;28;20503;-59
2022/06/30 12:53:45;;;;;;;8.73;7.93;;;33.00;40.60;;;;;;5035637;28;20445;-59
2022/06/30 12:56:17;;;;;;;8.97;8.20;;;32.70;41.40;;;;;;5033007;28;20457;-59
2022/06/30 12:58:50;;;;;;;8.17;7.47;;;32.60;41.60;;;;;;5035902;28;20448;-59
2022/06/30 13:01:19;;;;;;;8.90;8.10;;;32.60;41.60;;;;;;5035391;28;20598;-59
2022/06/30 13:03:58;;;;;;;8.27;7.43;;;32.50;41.70;;;;;;5034380;28;20480;-59
2022/06/30 13:06:27;;;;;;;8.00;7.30;;;32.50;41.70;;;;;;5034059;28;20452;-59
2022/06/30 13:08:54;;;;;;;8.10;7.40;;;32.60;41.60;;;;;;5036295;28;20523;-59
2022/06/30 13:11:25;;;;;;;10.03;7.67;;;32.70;41.20;;;;;;5035545;28;20972;-59
2022/06/30 13:13:55;;;;;;;7.63;7.03;;;32.80;40.90;;;;;;5034789;28;20999;-59
2022/06/30 13:16:23;;;;;;;8.50;7.53;;;33.00;40.70;;;;;;5036240;28;20461;-59